Status Flugplatz

Der Flugplatz ist offen
PPR Regelung ! PJE !!!

123.15 MHz
RWY 05/23

flüger beizli - Öffnungszeiten
Freitag ab 16:00
Samstag +Sonntag ab 11:00
Bei schönem Wetter öffnen wir früher! Tel.: 079 234 07 74
[source: ADDS]
METAR
LSZB 171450Z 27013KT 9999 BKN060 03/M04 Q1014 NOSIG =
TAF
TAF LSZB 171425Z 1715/1724 25010KT 9999 SCT030 BKN060 TEMPO 1715/1724 28015G25KT 3000 SHSN SCT020TCU BKN030 PROB40 TEMPO 1715/1718 1500 SHSN BKN012 =

 


 

[source: ADDS]
METAR
LSGC 171450Z AUTO 24011G21KT 210V280 9999 -SN BKN/// M02/M04 Q1013 =
TAF
TAF LSGC 171425Z 1715/1724 27015KT 9999 BKN015 TEMPO 1718/1724 0300 +SHSN VV002 =

 


 

[source: ADDS]
METAR
LFSB 171430Z 26017KT 9999 FEW030 BKN063 05/M01 Q1013 NOSIG =
TAF
TAF LFSB 171100Z 1712/1812 26015G25KT 9999 SCT025 BKN050 PROB40 TEMPO 1712/1720 -SHRA SCT030TCU PROB30 TEMPO 1712/1715 30020G35KT 4000 SHRAGS SCT025CB TEMPO 1806/1812 14020G35KT -RA =

Wetter Kappelen

 


 

[source: ADDS]
METAR
LSZG 171450Z 28014KT 2000 SN VV018 02/M01 Q1014 NOSIG =
TAF
TAF LSZG 171425Z 1715/1724 26015G30KT 9999 FEW030 SCT050 TEMPO 1715/1721 2000 SHGSSN BKN012TCU PROB30 TEMPO 1715/1718 1200 TSGSSN SCT012CB TEMPO 1721/1724 4500 BKN010 =
SR / SS: 07:12 / 16:12 UTC ( 2018-01-17)

 


 

Flugplatz Biel-Kappelen LSZP - 123.15MHz - 032 384 46 84

Email: Diese E-Mail-Adresse ist vor Spambots geschützt! Zur Anzeige muss JavaScript eingeschaltet sein!
www.lszp.ch
2017 © by mb

Zum Anfang